Altus Air Force Base
KLTS : now visible

Airfield :











YOU CAN JOIN US ON...

 
LOGIN :

Register | Disclaimer

   EN    FR    IT 

 









Legend :    VFR   Marginal VFR   IFR   Intensive IFR   Very Intensive IFR
Visi :
Ceiling :
>= 8 km
>= 3000ft
5 to 8 km
1000 to 3000 ft
1500m to 5 km
500 to 1000 ft
800 to 1500m
200 to 500 ft
< 800m
< 200 ft
Symbols :   Thunderstorms  Fog  Heavy snow  Heavy precipitations  Wind > 20 kt







- Airport Elevation : 1382 ft


KLTS - Altus Air Force Base

CURRENT METAR :
  • 261056Z AUTO 15008KT M M CLR 21/20 A2997 RMK AO2 SLP136 T02080203 RVRNO $

EXPIRED METARs :
  • 260956Z AUTO 14009KT M M CLR 21/21 A2996 RMK AO2 SLP132 T02130208 RVRNO $
  • 260856Z AUTO 12008KT M M CLR 22/21 A2995 RMK AO2 SLP128 T02210205 53003 RVRNO $

Expired Forecast.
KZFW FIR / North America



MET'MAP, your aeronautical weather chart ! - Copyright ORBIFLY December 2007 - Disclaimer

ORBIFLY MET'MAP TEAM :

Programming & Development : Alexandra Zaïnal
Concept & Development : Baudouin d'Aumeries
Co-Development & Prog : Marc-Olivier Méhu
Technical & hardware support : Manuel Goepfert

Contact : metmap@orbifly.com




SOURCES & CREDITS :

   NOAA       Earth
Advisory